createdAt,value
2018-08-19T00:03:06.918Z,100218.53
2018-08-19T00:07:50.406Z,100210.66
2018-08-19T00:12:44.737Z,100209.89
2018-08-19T00:17:28.111Z,100194.73
2018-08-19T00:22:12.591Z,100196.94
2018-08-19T00:26:55.952Z,100197.70
2018-08-19T00:31:42.382Z,100190.26
2018-08-19T00:36:33.998Z,100188.88
2018-08-19T00:41:17.381Z,100189.84
2018-08-19T00:46:10.279Z,100183.91
2018-08-19T00:50:53.918Z,100184.17
2018-08-19T00:55:42.711Z,100184.47
2018-08-19T01:00:28.799Z,100178.27
2018-08-19T01:05:12.267Z,100178.34
2018-08-19T01:09:56.560Z,100164.56
2018-08-19T01:14:39.908Z,100179.13
2018-08-19T01:19:23.414Z,100176.63
2018-08-19T01:24:08.760Z,100170.98
2018-08-19T01:28:54.974Z,100170.27
2018-08-19T01:33:38.406Z,100173.00
2018-08-19T01:38:21.916Z,100166.91
2018-08-19T01:43:06.420Z,100174.07
2018-08-19T01:47:49.750Z,100167.94
2018-08-19T01:52:33.285Z,100159.70
2018-08-19T01:57:16.587Z,100166.98
2018-08-19T02:02:03.172Z,100164.22
2018-08-19T02:06:46.580Z,100160.56
2018-08-19T02:11:31.560Z,100156.60
2018-08-19T02:16:15.314Z,100149.17
2018-08-19T02:20:58.944Z,100153.58
2018-08-19T02:25:48.596Z,100154.06
2018-08-19T02:30:40.268Z,100165.60
2018-08-19T02:35:23.700Z,100164.95
2018-08-19T02:40:07.228Z,100163.76
2018-08-19T02:44:52.692Z,100164.86
2018-08-19T02:49:36.239Z,100163.13
2018-08-19T02:54:19.595Z,100165.11
2018-08-19T02:59:03.364Z,100167.11
2018-08-19T03:03:46.709Z,100169.94
2018-08-19T03:08:31.185Z,100162.92
2018-08-19T03:13:14.585Z,100171.63
2018-08-19T03:17:59.112Z,100169.22
2018-08-19T03:22:43.692Z,100173.98
2018-08-19T03:27:27.247Z,100172.20
2018-08-19T03:32:11.825Z,100170.08
2018-08-19T03:36:56.320Z,100168.95
2018-08-19T03:41:40.011Z,100176.23
2018-08-19T03:46:23.500Z,100176.70
2018-08-19T03:51:08.201Z,100183.59
2018-08-19T03:55:51.573Z,100188.37
2018-08-19T04:00:41.856Z,100189.31
2018-08-19T04:05:39.014Z,100183.22
2018-08-19T04:10:23.577Z,100184.14
2018-08-19T04:15:11.329Z,100189.45
2018-08-19T04:19:58.514Z,100191.37
2018-08-19T04:24:42.014Z,100188.88
2018-08-19T04:29:30.596Z,100186.67
2018-08-19T04:34:13.972Z,100192.65
2018-08-19T04:38:57.449Z,100193.07
2018-08-19T04:43:41.039Z,100201.62
2018-08-19T04:48:26.250Z,100201.77
2018-08-19T04:53:09.548Z,100209.17
2018-08-19T04:57:53.206Z,100202.69
2018-08-19T05:02:36.731Z,100211.16
2018-08-19T05:07:20.156Z,100208.55
2018-08-19T05:12:04.725Z,100216.41
2018-08-19T05:16:48.086Z,100229.73
2018-08-19T05:21:32.796Z,100229.70
2018-08-19T05:26:16.353Z,100246.60
2018-08-19T05:31:00.059Z,100243.18
2018-08-19T05:35:43.412Z,100236.20
2018-08-19T05:40:28.210Z,100232.69
2018-08-19T05:45:11.695Z,100227.63
2018-08-19T05:49:59.049Z,100232.37
2018-08-19T06:05:02.181Z,100241.94
2018-08-19T06:09:46.822Z,100248.13
2018-08-19T06:14:34.364Z,100250.84
2018-08-19T06:24:24.766Z,100261.72
2018-08-19T06:29:08.303Z,100263.39
2018-08-19T06:33:56.476Z,100266.95
2018-08-19T06:38:43.486Z,100272.23
2018-08-19T06:43:27.296Z,100269.72
2018-08-19T06:48:12.023Z,100267.70
2018-08-19T06:53:03.727Z,100262.42
2018-08-19T06:57:47.333Z,100263.30
2018-08-19T07:02:32.345Z,100270.03
2018-08-19T07:07:30.112Z,100258.05
2018-08-19T07:18:27.311Z,100255.70
2018-08-19T07:23:12.135Z,100260.03
2018-08-19T07:27:56.109Z,100255.98
2018-08-19T07:32:40.500Z,100257.53
2018-08-19T07:37:23.967Z,100252.58
2018-08-19T07:42:08.566Z,100254.92
2018-08-19T07:46:51.858Z,100256.08
2018-08-19T07:51:37.010Z,100255.51
2018-08-19T07:56:21.031Z,100259.06
2018-08-19T08:01:04.601Z,100248.78
2018-08-19T08:05:51.427Z,100246.97
2018-08-19T08:10:38.364Z,100244.71
2018-08-19T08:15:23.953Z,100235.94
2018-08-19T08:20:08.420Z,100234.57
2018-08-19T08:24:52.148Z,100228.80
2018-08-19T08:29:35.746Z,100232.92
2018-08-19T08:34:20.320Z,100222.53
2018-08-19T08:39:06.491Z,100226.28
2018-08-19T08:43:50.124Z,100226.63
2018-08-19T08:48:35.946Z,100223.23
2018-08-19T08:53:19.975Z,100222.95
2018-08-19T08:58:03.604Z,100220.84
2018-08-19T09:02:47.207Z,100219.36
2018-08-19T09:07:30.567Z,100217.94
2018-08-19T09:12:14.449Z,100208.73
2018-08-19T09:16:59.247Z,100204.10
2018-08-19T09:21:42.762Z,100209.68
2018-08-19T09:26:27.489Z,100210.84
2018-08-19T09:31:16.571Z,100209.98
2018-08-19T09:35:59.940Z,100207.48
2018-08-19T09:40:44.208Z,100198.46
2018-08-19T09:45:27.610Z,100207.46
2018-08-19T09:50:11.191Z,100200.55
2018-08-19T09:54:57.865Z,100186.26
2018-08-19T09:59:41.366Z,100195.72
2018-08-19T10:04:26.098Z,100195.77
2018-08-19T10:09:10.564Z,100184.20
2018-08-19T10:13:58.355Z,100182.92
2018-08-19T10:18:41.961Z,100167.55
2018-08-19T10:23:25.384Z,100173.87
2018-08-19T10:28:09.194Z,100159.11
2018-08-19T10:33:01.729Z,100167.30
2018-08-19T10:37:46.857Z,100155.92
2018-08-19T10:42:32.000Z,100166.73
2018-08-19T10:47:15.663Z,100150.98
2018-08-19T10:51:59.455Z,100144.83
2018-08-19T10:56:43.323Z,100134.19
2018-08-19T11:01:28.023Z,100134.06
2018-08-19T11:06:11.364Z,100119.19
2018-08-19T11:10:55.247Z,100121.48
2018-08-19T11:15:50.082Z,100131.99
2018-08-19T11:20:37.381Z,100173.47
2018-08-19T11:25:25.783Z,100169.98
2018-08-19T11:30:09.640Z,100162.00
2018-08-19T11:34:53.750Z,100175.94
2018-08-19T11:39:48.637Z,100211.78
2018-08-19T11:44:36.013Z,100206.80
2018-08-19T11:49:20.358Z,100211.84
2018-08-19T11:54:17.594Z,100206.86
2018-08-19T11:59:01.599Z,100208.55
2018-08-19T12:04:03.723Z,100199.58
2018-08-19T12:10:16.185Z,100204.66
2018-08-19T12:14:59.540Z,100202.39
2018-08-19T12:19:46.380Z,100202.16
2018-08-19T12:24:37.322Z,100213.48
2018-08-19T12:29:21.623Z,100199.19
2018-08-19T12:34:05.063Z,100203.19
2018-08-19T12:38:48.602Z,100204.94
2018-08-19T12:43:33.567Z,100220.56
2018-08-19T12:48:21.060Z,100222.63
2018-08-19T12:53:04.527Z,100208.83
2018-08-19T12:57:53.370Z,100219.56
2018-08-19T13:02:44.416Z,100209.28
2018-08-19T13:07:31.160Z,100203.66
2018-08-19T13:12:14.564Z,100217.23
2018-08-19T13:16:59.084Z,100213.95
2018-08-19T13:21:42.533Z,100221.66
2018-08-19T13:26:28.185Z,100225.75
2018-08-19T13:31:21.267Z,100230.83
2018-08-19T13:36:04.728Z,100234.24
2018-08-19T13:40:51.838Z,100233.78
2018-08-19T13:45:35.233Z,100225.70
2018-08-19T13:50:18.642Z,100210.63
2018-08-19T13:55:04.074Z,100204.91
2018-08-19T13:59:47.818Z,100202.89
2018-08-19T14:04:31.169Z,100190.91
2018-08-19T14:09:16.560Z,100183.97
2018-08-19T14:14:00.006Z,100178.66
2018-08-19T14:18:43.741Z,100183.33
2018-08-19T14:23:27.176Z,100190.88
2018-08-19T14:28:11.798Z,100194.96
2018-08-19T14:32:55.221Z,100198.59
2018-08-19T14:37:38.749Z,100192.72
2018-08-19T14:42:22.625Z,100206.78
2018-08-19T14:47:06.166Z,100212.59
2018-08-19T14:51:59.573Z,100201.66
2018-08-19T14:56:43.191Z,100207.19
2018-08-19T15:01:26.619Z,100191.70
2018-08-19T15:06:13.987Z,100186.54
2018-08-19T15:11:02.619Z,100179.63
2018-08-19T15:15:45.949Z,100183.27
2018-08-19T15:20:36.932Z,100175.64
2018-08-19T15:25:20.418Z,100168.87
2018-08-19T15:30:03.891Z,100166.94
2018-08-19T15:34:48.481Z,100159.55
2018-08-19T15:39:32.137Z,100155.61
2018-08-19T15:44:15.564Z,100150.13
2018-08-19T15:48:59.109Z,100155.04
2018-08-19T15:53:42.575Z,100157.80
2018-08-19T15:58:32.003Z,100160.70
2018-08-19T16:03:15.374Z,100154.03
2018-08-19T16:07:58.869Z,100150.40
2018-08-19T16:12:47.587Z,100157.58
2018-08-19T16:17:31.140Z,100157.62
2018-08-19T16:22:14.577Z,100152.57
2018-08-19T16:26:59.124Z,100152.55
2018-08-19T16:31:42.651Z,100155.33
2018-08-19T16:36:26.327Z,100152.37
2018-08-19T16:41:09.807Z,100146.92
2018-08-19T16:45:54.245Z,100146.03
2018-08-19T16:50:37.829Z,100152.37
2018-08-19T16:55:21.306Z,100151.71
2018-08-19T17:00:05.891Z,100153.16
2018-08-19T17:04:49.285Z,100159.05
2018-08-19T17:09:32.746Z,100161.36
2018-08-19T17:14:16.258Z,100157.86
2018-08-19T17:19:00.196Z,100158.92
2018-08-19T17:23:47.388Z,100160.10
2018-08-19T17:28:31.021Z,100164.75
2018-08-19T17:33:14.786Z,100157.75
2018-08-19T17:37:59.272Z,100160.11
2018-08-19T17:42:43.777Z,100169.14
2018-08-19T17:47:27.397Z,100170.87
2018-08-19T17:52:10.975Z,100174.94
2018-08-19T17:56:55.369Z,100175.50
2018-08-19T18:01:42.605Z,100173.08
2018-08-19T18:06:27.148Z,100179.50
2018-08-19T18:11:10.653Z,100188.84
2018-08-19T18:15:54.138Z,100190.45
2018-08-19T18:20:39.226Z,100199.86
2018-08-19T18:25:28.540Z,100192.57
2018-08-19T18:30:14.545Z,100203.47
2018-08-19T18:35:05.141Z,100193.20
2018-08-19T18:39:54.105Z,100189.67
2018-08-19T18:44:43.132Z,100202.38
2018-08-19T18:49:35.524Z,100198.97
2018-08-19T18:54:29.282Z,100201.96
2018-08-19T18:59:12.694Z,100189.58
2018-08-19T19:03:57.656Z,100191.77
2018-08-19T19:08:42.234Z,100181.86
2018-08-19T19:13:27.025Z,100194.13
2018-08-19T19:18:12.949Z,100194.56
2018-08-19T19:23:01.245Z,100191.07
2018-08-19T19:27:44.977Z,100185.55
2018-08-19T19:32:28.307Z,100191.79
2018-08-19T19:37:12.653Z,100187.75
2018-08-19T19:42:01.212Z,100199.13
2018-08-19T19:46:45.654Z,100196.39
2018-08-19T19:51:29.117Z,100205.45
2018-08-19T19:56:17.784Z,100196.31
2018-08-19T20:01:03.674Z,100197.22
2018-08-19T20:05:48.056Z,100197.31
2018-08-19T20:10:31.472Z,100194.73
2018-08-19T20:15:15.039Z,100198.28
2018-08-19T20:19:58.405Z,100200.52
2018-08-19T20:24:41.852Z,100211.25
2018-08-19T20:29:26.483Z,100216.33
2018-08-19T20:34:09.917Z,100219.35
2018-08-19T20:38:53.382Z,100223.80
2018-08-19T20:43:36.847Z,100220.78
2018-08-19T20:48:22.557Z,100217.86
2018-08-19T20:53:06.005Z,100216.54
2018-08-19T20:57:50.459Z,100209.27
2018-08-19T21:02:33.795Z,100205.42
2018-08-19T21:07:17.228Z,100209.11
2018-08-19T21:12:00.624Z,100217.92
2018-08-19T21:16:44.195Z,100207.85
2018-08-19T21:21:27.610Z,100207.66
2018-08-19T21:26:11.391Z,100199.88
2018-08-19T21:30:54.997Z,100208.23
2018-08-19T21:35:43.953Z,100211.95
2018-08-19T21:40:31.739Z,100208.57
2018-08-19T21:45:16.224Z,100217.64
2018-08-19T21:49:59.725Z,100214.08
2018-08-19T21:54:43.319Z,100203.42
2018-08-19T21:59:26.912Z,100203.83
2018-08-19T22:04:10.311Z,100203.80
2018-08-19T22:08:53.896Z,100199.83
2018-08-19T22:13:37.276Z,100194.33
2018-08-19T22:18:22.410Z,100196.27
2018-08-19T22:23:06.529Z,100191.64
2018-08-19T22:27:49.983Z,100187.27
2018-08-19T22:32:34.547Z,100189.67
2018-08-19T22:37:17.993Z,100190.86
2018-08-19T22:42:01.391Z,100189.47
2018-08-19T22:46:44.876Z,100184.73
2018-08-19T22:51:32.054Z,100176.73
2018-08-19T22:56:15.501Z,100169.83
2018-08-19T23:00:58.938Z,100159.41
2018-08-19T23:05:43.348Z,100164.12
2018-08-19T23:10:26.789Z,100166.58
2018-08-19T23:15:21.980Z,100163.46
2018-08-19T23:20:05.368Z,100165.55
2018-08-19T23:24:50.007Z,100160.36
2018-08-19T23:29:33.328Z,100161.54
2018-08-19T23:34:16.793Z,100149.34
2018-08-19T23:39:00.366Z,100144.74
2018-08-19T23:43:43.796Z,100150.80
2018-08-19T23:48:28.089Z,100154.55
2018-08-19T23:53:12.311Z,100161.92
2018-08-19T23:57:55.761Z,100155.30
